Terminal Aerodrome Forecast
Issued by NWS

Home | Current Version | Previous Version | Text Only | Print | Product List | Glossary On
Versions: 1 2 3 4 5 6 7 8 9 10 11 12
550
FTUS45 KTFX 270532
TAFBZN
TAF
KBZN 270532Z 2706/2806 15006KT P6SM SCT250
     FM272000 25010G20KT P6SM SCT110 BKN250
     FM280000 20008KT P6SM BKN250=

USA.gov is the U.S. government's official web portal to all federal, state and local government web resources and services.